Time;durP1;ratioP1;P1;durP2;ratioP2;P2;SDS_P1;SDS_P2;PMS_P1;PMS_P2;Temp;Humidity;BMP_temperature;BMP_pressure;BME280_temperature;BME280_humidity;BME280_pressure;Samples;Min_cycle;Max_cycle;Signal;HPM_P1;HPM_P2
2022/07/19 00:01:12;;;;;;;7.57;6.78;;;27.70;94.30;;;;;;5112402;28;20474;-74
2022/07/19 00:03:39;;;;;;;6.32;5.72;;;27.60;94.30;;;;;;5111065;28;20046;-75
2022/07/19 00:06:07;;;;;;;7.05;5.88;;;27.60;94.20;;;;;;5110369;28;20519;-75
2022/07/19 00:08:34;;;;;;;8.15;6.43;;;27.60;94.10;;;;;;5111074;28;20047;-75
2022/07/19 00:11:02;;;;;;;7.18;5.70;;;27.60;94.10;;;;;;5112093;28;20058;-74
2022/07/19 00:13:29;;;;;;;8.48;6.15;;;27.60;93.90;;;;;;5112498;28;20398;-74
2022/07/19 00:15:57;;;;;;;6.80;5.38;;;27.70;93.90;;;;;;5110490;28;20504;-75
2022/07/19 00:18:25;;;;;;;7.18;5.85;;;27.60;93.80;;;;;;5112184;28;20036;-74
2022/07/19 00:20:53;;;;;;;8.43;6.03;;;27.60;93.70;;;;;;5111167;27;20116;-74
2022/07/19 00:23:20;;;;;;;8.00;5.45;;;27.70;93.60;;;;;;5093601;28;20097;-75
2022/07/19 00:25:48;;;;;;;7.15;4.85;;;27.60;93.60;;;;;;5110152;28;20044;-74
2022/07/19 00:28:16;;;;;;;9.50;5.95;;;27.70;93.40;;;;;;5111836;28;20043;-74
2022/07/19 00:30:43;;;;;;;9.07;5.32;;;27.60;93.30;;;;;;5093145;28;20050;-74
2022/07/19 00:33:11;;;;;;;7.25;5.15;;;27.60;93.30;;;;;;5110430;28;20044;-75
2022/07/19 00:35:39;;;;;;;6.78;5.25;;;27.60;93.10;;;;;;5110933;27;20036;-74
2022/07/19 00:38:08;;;;;;;6.95;5.05;;;27.60;93.10;;;;;;5111452;28;20560;-74
2022/07/19 00:40:37;;;;;;;6.88;5.38;;;27.60;93.10;;;;;;5110762;28;20059;-74
2022/07/19 00:43:05;;;;;;;9.27;4.88;;;27.60;93.10;;;;;;5111469;28;20590;-74
2022/07/19 00:45:32;;;;;;;7.28;4.57;;;27.60;93.00;;;;;;5109837;28;20073;-75
2022/07/19 00:48:00;;;;;;;12.35;5.30;;;27.60;93.20;;;;;;5110487;28;20050;-74
2022/07/19 00:50:28;;;;;;;6.47;4.80;;;27.50;92.90;;;;;;5109702;28;20039;-74
2022/07/19 00:53:05;;;;;;;6.20;5.03;;;27.50;92.90;;;;;;5111307;28;20427;-75
2022/07/19 00:55:38;;;;;;;8.27;4.60;;;27.50;93.00;;;;;;5110840;28;20040;-74
2022/07/19 00:58:06;;;;;;;8.13;5.20;;;27.50;92.90;;;;;;5111490;28;20061;-74
2022/07/19 01:00:34;;;;;;;9.20;4.65;;;27.50;92.90;;;;;;5109961;28;20401;-75
2022/07/19 01:03:02;;;;;;;7.93;5.03;;;27.40;92.90;;;;;;5110729;28;20047;-74
2022/07/19 01:05:29;;;;;;;6.40;4.63;;;27.40;93.00;;;;;;5092524;28;20055;-74
2022/07/19 01:07:57;;;;;;;8.07;5.75;;;27.40;93.00;;;;;;5092743;28;20059;-75
2022/07/19 01:10:26;;;;;;;6.13;4.65;;;27.30;93.00;;;;;;5109812;28;20122;-75
2022/07/19 01:12:54;;;;;;;6.07;4.90;;;27.30;93.10;;;;;;5111074;28;20044;-74
2022/07/19 01:15:25;;;;;;;7.80;4.63;;;27.30;93.00;;;;;;5109650;28;20051;-74
2022/07/19 01:17:52;;;;;;;5.50;4.65;;;27.30;93.10;;;;;;5111150;28;20554;-74
2022/07/19 01:20:22;;;;;;;7.00;4.93;;;27.20;93.20;;;;;;5110542;28;20043;-75
2022/07/19 01:22:53;;;;;;;9.60;4.97;;;27.20;93.20;;;;;;5110879;28;20040;-74
2022/07/19 01:25:23;;;;;;;6.55;4.47;;;27.20;93.20;;;;;;5109358;28;20050;-75
2022/07/19 01:27:51;;;;;;;5.22;4.70;;;27.20;93.20;;;;;;5109770;28;20142;-74
2022/07/19 01:30:21;;;;;;;10.60;5.50;;;27.10;93.10;;;;;;5110719;28;20428;-75
2022/07/19 01:32:49;;;;;;;7.60;4.97;;;27.10;93.10;;;;;;5109504;28;20134;-74
2022/07/19 01:35:17;;;;;;;5.15;4.32;;;27.10;93.10;;;;;;5109500;28;20050;-74
2022/07/19 01:37:45;;;;;;;8.55;5.55;;;27.10;93.00;;;;;;5110670;28;20134;-74
2022/07/19 01:40:15;;;;;;;5.15;4.18;;;27.10;93.00;;;;;;5110445;28;20048;-75
2022/07/19 01:42:43;;;;;;;5.32;4.38;;;27.00;93.00;;;;;;5110027;28;20459;-74
2022/07/19 01:45:12;;;;;;;7.07;4.25;;;27.00;93.00;;;;;;5110399;28;20039;-74
2022/07/19 01:47:43;;;;;;;4.88;4.30;;;27.00;93.00;;;;;;5110000;28;20043;-75
2022/07/19 01:50:14;;;;;;;6.50;4.72;;;27.00;93.10;;;;;;5091905;28;20039;-74
2022/07/19 01:52:42;;;;;;;6.32;4.20;;;27.00;93.10;;;;;;5110188;28;20063;-74
2022/07/19 01:55:14;;;;;;;5.65;3.92;;;27.00;93.10;;;;;;5109022;28;20048;-74
2022/07/19 01:57:42;;;;;;;4.95;3.97;;;27.00;93.10;;;;;;5108489;28;20047;-75
2022/07/19 02:00:10;;;;;;;4.85;4.35;;;27.00;93.20;;;;;;5110212;28;20127;-74
2022/07/19 02:02:41;;;;;;;7.63;3.75;;;26.90;93.10;;;;;;5110600;28;20039;-74
2022/07/19 02:05:09;;;;;;;6.18;4.50;;;26.90;93.20;;;;;;5108946;28;20046;-75
2022/07/19 02:07:38;;;;;;;5.32;3.63;;;26.90;93.40;;;;;;5110069;28;20040;-74
2022/07/19 02:10:06;;;;;;;6.22;4.07;;;26.90;93.20;;;;;;5108283;28;20082;-75
2022/07/19 02:12:34;;;;;;;6.05;4.20;;;26.90;93.30;;;;;;5109945;28;20135;-74
2022/07/19 02:15:02;;;;;;;6.93;4.15;;;26.90;93.30;;;;;;5108925;28;20475;-75
2022/07/19 02:17:30;;;;;;;7.57;3.75;;;26.80;93.20;;;;;;5091259;28;20491;-74
2022/07/19 02:19:57;;;;;;;5.28;4.10;;;26.80;93.30;;;;;;5110188;28;20048;-74
2022/07/19 02:22:25;;;;;;;6.13;4.05;;;26.80;93.30;;;;;;5108675;28;20150;-74
2022/07/19 02:24:53;;;;;;;7.10;4.38;;;26.80;93.30;;;;;;5109593;28;20044;-74
2022/07/19 02:27:21;;;;;;;6.45;3.95;;;26.80;93.40;;;;;;5091353;28;20052;-74
2022/07/19 02:29:48;;;;;;;9.63;3.85;;;26.80;93.50;;;;;;5108416;28;20075;-74
2022/07/19 02:32:16;;;;;;;8.35;3.90;;;26.80;93.40;;;;;;5112638;28;20040;-75
2022/07/19 02:34:44;;;;;;;5.70;4.43;;;26.80;93.40;;;;;;5113667;28;20036;-75
2022/07/19 02:37:12;;;;;;;7.43;4.70;;;26.70;93.40;;;;;;5113839;28;20039;-75
2022/07/19 02:39:39;;;;;;;6.95;4.45;;;26.70;93.50;;;;;;5113478;28;20039;-74
2022/07/19 02:42:07;;;;;;;6.97;4.55;;;26.70;93.50;;;;;;5113693;28;20072;-74
2022/07/19 02:44:34;;;;;;;6.38;4.47;;;26.70;93.50;;;;;;5113916;28;20477;-74
2022/07/19 02:47:02;;;;;;;5.53;3.95;;;26.60;93.50;;;;;;5113151;28;20505;-74
2022/07/19 02:49:32;;;;;;;8.27;5.20;;;26.60;93.60;;;;;;5112318;28;20481;-74
2022/07/19 02:52:00;;;;;;;7.82;5.55;;;26.60;93.60;;;;;;5113631;28;20049;-74
2022/07/19 02:54:28;;;;;;;6.82;4.05;;;26.50;93.60;;;;;;5114046;28;20039;-74
2022/07/19 02:56:56;;;;;;;6.28;4.82;;;26.50;93.70;;;;;;5113530;28;20508;-74
2022/07/19 02:59:23;;;;;;;7.10;4.85;;;26.50;93.80;;;;;;5113459;28;20489;-74
2022/07/19 03:01:51;;;;;;;7.78;4.55;;;26.50;93.80;;;;;;5112690;28;20047;-74
2022/07/19 03:04:19;;;;;;;5.63;4.07;;;26.50;93.80;;;;;;5113716;28;20047;-74
2022/07/19 03:06:47;;;;;;;7.75;5.55;;;26.50;93.90;;;;;;5113719;28;20040;-75
2022/07/19 03:09:14;;;;;;;5.55;4.22;;;26.40;93.90;;;;;;5112434;28;20093;-74
2022/07/19 03:11:42;;;;;;;5.20;3.88;;;26.40;93.90;;;;;;5113621;28;20126;-75
2022/07/19 03:14:09;;;;;;;5.03;4.53;;;26.40;93.90;;;;;;5094938;28;20043;-74
2022/07/19 03:16:37;;;;;;;6.97;4.22;;;26.40;93.90;;;;;;5113328;28;20572;-74
2022/07/19 03:19:05;;;;;;;6.45;4.00;;;26.40;93.90;;;;;;5112809;28;20134;-74
2022/07/19 03:21:33;;;;;;;6.43;4.30;;;26.40;93.90;;;;;;5112034;28;20051;-74
2022/07/19 03:24:00;;;;;;;7.95;4.13;;;26.40;94.00;;;;;;5113056;28;20389;-74
2022/07/19 03:26:31;;;;;;;7.32;4.90;;;26.40;93.90;;;;;;5113423;28;20039;-74
2022/07/19 03:28:59;;;;;;;9.93;4.88;;;26.40;93.90;;;;;;5112704;28;20443;-75
2022/07/19 03:31:26;;;;;;;8.68;5.03;;;26.40;93.90;;;;;;5109886;28;20070;-74
2022/07/19 03:33:54;;;;;;;8.02;4.75;;;26.50;93.80;;;;;;5109015;28;20071;-75
2022/07/19 03:36:21;;;;;;;9.23;4.55;;;26.50;93.90;;;;;;5108848;28;20478;-74
2022/07/19 03:38:49;;;;;;;9.95;4.80;;;26.50;93.80;;;;;;5108922;28;20354;-74
2022/07/19 03:41:16;;;;;;;9.65;4.97;;;26.50;93.80;;;;;;5108578;28;20063;-75
2022/07/19 03:43:44;;;;;;;5.15;4.13;;;26.50;93.70;;;;;;5107445;28;20444;-74
2022/07/19 03:46:11;;;;;;;7.97;4.55;;;26.60;93.70;;;;;;5107109;28;20065;-74
2022/07/19 03:48:39;;;;;;;12.10;4.15;;;26.60;93.70;;;;;;5107537;28;20043;-74
2022/07/19 03:51:06;;;;;;;6.45;4.60;;;26.60;93.70;;;;;;5108734;28;20141;-74
2022/07/19 03:53:34;;;;;;;8.35;4.18;;;26.60;93.70;;;;;;5106770;28;20069;-74
2022/07/19 03:56:02;;;;;;;7.75;4.60;;;26.60;93.70;;;;;;5110161;28;20405;-74
2022/07/19 03:58:30;;;;;;;8.40;4.32;;;26.70;93.70;;;;;;5112308;28;20142;-74
2022/07/19 04:00:58;;;;;;;7.40;4.28;;;26.70;93.60;;;;;;5112185;28;20067;-74
2022/07/19 04:03:25;;;;;;;5.40;3.60;;;26.80;93.60;;;;;;5112026;28;20093;-74
2022/07/19 04:05:53;;;;;;;7.63;4.90;;;26.80;93.50;;;;;;5093670;28;20902;-74
2022/07/19 04:08:20;;;;;;;6.05;3.60;;;26.90;93.50;;;;;;5111319;28;20131;-75
2022/07/19 04:10:48;;;;;;;7.13;4.68;;;26.90;93.40;;;;;;5110216;28;20121;-74
2022/07/19 04:13:15;;;;;;;6.00;3.92;;;27.00;93.40;;;;;;5093716;28;20047;-74
2022/07/19 04:15:43;;;;;;;8.13;4.70;;;27.00;93.30;;;;;;5110313;28;20516;-75
2022/07/19 04:18:12;;;;;;;7.60;4.03;;;27.10;93.30;;;;;;5111850;27;20526;-73
2022/07/19 04:20:40;;;;;;;7.53;4.38;;;27.10;93.20;;;;;;5110783;28;20044;-73
2022/07/19 04:23:08;;;;;;;7.07;4.15;;;27.20;93.30;;;;;;5110632;28;20092;-74
2022/07/19 04:25:36;;;;;;;8.90;4.57;;;27.20;93.20;;;;;;5111116;28;20460;-74
2022/07/19 04:28:03;;;;;;;6.47;4.32;;;27.30;93.20;;;;;;5111716;28;20056;-74
2022/07/19 04:30:31;;;;;;;10.23;3.65;;;27.40;93.20;;;;;;5111718;28;20552;-74
2022/07/19 04:32:59;;;;;;;6.10;3.42;;;27.40;93.10;;;;;;5111928;28;20036;-74
2022/07/19 04:35:27;;;;;;;5.53;4.60;;;27.50;93.10;;;;;;5111709;28;20123;-74
2022/07/19 04:37:55;;;;;;;6.05;3.42;;;27.60;93.20;;;;;;5110089;28;20055;-74
2022/07/19 04:40:22;;;;;;;4.55;3.25;;;27.70;93.30;;;;;;5110007;28;20142;-74
2022/07/19 04:42:50;;;;;;;7.45;3.00;;;27.80;93.30;;;;;;5111315;28;20506;-74
2022/07/19 04:45:17;;;;;;;5.68;3.20;;;28.00;93.40;;;;;;5111435;28;20066;-75
2022/07/19 04:47:45;;;;;;;7.75;4.00;;;28.10;93.30;;;;;;5109516;28;20130;-75
2022/07/19 04:50:12;;;;;;;7.00;2.67;;;28.20;93.30;;;;;;5110160;28;20042;-74
2022/07/19 04:52:40;;;;;;;5.82;3.15;;;28.30;93.20;;;;;;5111368;28;20063;-75
2022/07/19 04:55:08;;;;;;;6.40;2.95;;;28.40;93.20;;;;;;5111533;28;20055;-74
2022/07/19 04:57:36;;;;;;;9.00;3.55;;;28.50;93.10;;;;;;5111393;28;20142;-74
2022/07/19 05:00:06;;;;;;;10.20;3.75;;;28.60;93.00;;;;;;5110328;28;20108;-74
2022/07/19 05:02:34;;;;;;;4.18;2.45;;;28.70;92.80;;;;;;5111594;28;20173;-74
2022/07/19 05:05:03;;;;;;;6.18;2.65;;;28.70;92.60;;;;;;5109608;28;20043;-74
2022/07/19 05:07:31;;;;;;;5.40;3.17;;;28.80;92.50;;;;;;5109713;28;20408;-74
2022/07/19 05:09:58;;;;;;;5.03;2.17;;;28.90;92.50;;;;;;5111189;28;20508;-74
2022/07/19 05:12:27;;;;;;;5.30;2.80;;;28.90;92.40;;;;;;5109048;28;20036;-75
2022/07/19 05:14:54;;;;;;;7.35;2.83;;;29.10;92.30;;;;;;5111108;28;20043;-74
2022/07/19 05:17:22;;;;;;;5.75;2.50;;;29.20;92.10;;;;;;5111104;28;20039;-75
2022/07/19 05:19:50;;;;;;;6.10;2.92;;;29.30;91.90;;;;;;5111404;28;20409;-75
2022/07/19 05:22:17;;;;;;;9.48;2.92;;;29.40;91.60;;;;;;5093436;28;20043;-75
2022/07/19 05:24:45;;;;;;;6.72;2.70;;;29.50;91.40;;;;;;5092695;28;20513;-76
2022/07/19 05:27:13;;;;;;;5.00;2.50;;;29.60;91.20;;;;;;5110809;28;20086;-75
2022/07/19 05:29:40;;;;;;;7.45;3.10;;;29.60;91.10;;;;;;5102862;28;20062;-75
2022/07/19 05:32:08;;;;;;;4.95;2.90;;;29.70;90.90;;;;;;5089171;28;20047;-75
2022/07/19 05:34:35;;;;;;;7.50;2.53;;;29.80;90.70;;;;;;5087435;28;20044;-75
2022/07/19 05:37:03;;;;;;;4.55;3.33;;;29.90;90.40;;;;;;5088891;28;20109;-76
2022/07/19 05:39:31;;;;;;;7.25;2.78;;;29.90;90.00;;;;;;5089949;28;20491;-75
2022/07/19 05:41:58;;;;;;;7.65;3.75;;;30.00;89.30;;;;;;5088835;28;20214;-74
2022/07/19 05:44:26;;;;;;;5.78;3.15;;;30.00;88.10;;;;;;5089729;28;20417;-74
2022/07/19 05:46:53;;;;;;;7.38;3.35;;;30.10;88.20;;;;;;5087205;28;20043;-75
2022/07/19 05:49:21;;;;;;;12.05;3.55;;;30.20;88.00;;;;;;5088363;28;20144;-75
2022/07/19 05:51:49;;;;;;;6.82;3.40;;;30.20;87.00;;;;;;5070741;28;20036;-75
2022/07/19 05:54:17;;;;;;;7.75;2.70;;;30.30;87.60;;;;;;5089004;28;20044;-74
2022/07/19 05:56:44;;;;;;;4.70;2.90;;;30.40;87.60;;;;;;5087513;28;20043;-75
2022/07/19 05:59:12;;;;;;;10.30;2.65;;;30.50;87.20;;;;;;5090119;28;20091;-75
2022/07/19 06:01:40;;;;;;;4.47;2.58;;;30.60;87.30;;;;;;5089651;28;20063;-75
2022/07/19 06:04:08;;;;;;;4.32;2.80;;;30.60;86.90;;;;;;5071812;28;20039;-75
2022/07/19 06:06:35;;;;;;;8.18;3.67;;;30.80;86.50;;;;;;5090206;28;20059;-75
2022/07/19 06:09:04;;;;;;;5.55;3.13;;;30.80;86.20;;;;;;5089809;28;20047;-75
2022/07/19 06:11:32;;;;;;;6.43;3.65;;;30.90;86.40;;;;;;5089212;28;20043;-75
2022/07/19 06:14:00;;;;;;;6.07;2.63;;;31.00;86.10;;;;;;5090111;28;20048;-75
2022/07/19 06:16:27;;;;;;;3.47;2.67;;;31.10;85.80;;;;;;5088538;28;20048;-74
2022/07/19 06:18:55;;;;;;;7.38;3.08;;;31.20;85.20;;;;;;5089223;28;20130;-75
2022/07/19 06:21:23;;;;;;;5.80;2.70;;;31.20;85.00;;;;;;5089495;28;20371;-75
2022/07/19 06:23:51;;;;;;;3.85;2.40;;;31.20;84.90;;;;;;5055049;28;20113;-76
2022/07/19 06:26:19;;;;;;;4.90;2.67;;;31.40;85.00;;;;;;5089135;28;20131;-75
2022/07/19 06:28:47;;;;;;;7.43;2.75;;;31.40;84.00;;;;;;5089509;28;20135;-76
2022/07/19 06:31:16;;;;;;;4.88;2.60;;;31.50;84.10;;;;;;5089225;28;20050;-74
2022/07/19 06:33:46;;;;;;;6.78;3.50;;;31.70;83.80;;;;;;5089042;28;20134;-75
2022/07/19 06:36:17;;;;;;;6.20;2.42;;;31.60;83.60;;;;;;5089128;28;20056;-75
2022/07/19 06:38:45;;;;;;;5.45;2.60;;;31.80;83.60;;;;;;5089516;28;20163;-75
2022/07/19 06:41:16;;;;;;;4.45;2.63;;;31.90;83.30;;;;;;5087585;28;20455;-75
2022/07/19 06:43:44;;;;;;;8.50;3.13;;;32.00;82.90;;;;;;5088256;28;20063;-74
2022/07/19 06:46:12;;;;;;;6.15;3.05;;;32.10;82.70;;;;;;5088001;28;20044;-74
2022/07/19 06:48:43;;;;;;;5.38;2.58;;;32.20;82.90;;;;;;5088660;28;20102;-75
2022/07/19 06:51:13;;;;;;;6.07;2.80;;;32.30;82.70;;;;;;5087691;28;20071;-75
2022/07/19 06:53:41;;;;;;;6.28;2.80;;;32.30;82.60;;;;;;5071043;28;20051;-76
2022/07/19 06:56:09;;;;;;;7.72;3.85;;;32.30;82.00;;;;;;5087086;28;20638;-75
2022/07/19 06:58:36;;;;;;;5.82;3.25;;;32.40;82.30;;;;;;5087901;28;20044;-76
2022/07/19 07:01:07;;;;;;;9.30;3.30;;;32.40;81.90;;;;;;5071926;28;20075;-75
2022/07/19 07:03:36;;;;;;;5.20;2.72;;;32.50;81.70;;;;;;5087953;28;20052;-75
2022/07/19 07:06:04;;;;;;;4.97;2.72;;;32.40;81.30;;;;;;5087814;28;20497;-75
2022/07/19 07:08:32;;;;;;;7.03;3.58;;;32.50;80.90;;;;;;5070178;28;20127;-75
2022/07/19 07:11:00;;;;;;;6.22;2.30;;;32.50;81.20;;;;;;5086642;28;20040;-76
2022/07/19 07:13:28;;;;;;;7.53;2.85;;;32.40;81.60;;;;;;5087182;28;20135;-76
2022/07/19 07:15:55;;;;;;;6.45;3.22;;;32.40;82.60;;;;;;5088748;28;20044;-75
2022/07/19 07:18:23;;;;;;;6.00;4.35;;;32.40;84.80;;;;;;5088534;28;20044;-74
2022/07/19 07:20:51;;;;;;;9.02;4.00;;;32.50;85.70;;;;;;5069802;28;20051;-75
2022/07/19 07:23:19;;;;;;;8.73;3.83;;;32.40;85.80;;;;;;5070127;28;20390;-76
2022/07/19 07:25:47;;;;;;;7.78;3.13;;;32.30;85.90;;;;;;5087889;28;20048;-75
2022/07/19 07:28:14;;;;;;;6.80;3.35;;;32.40;86.00;;;;;;5086705;28;20073;-75
2022/07/19 07:30:44;;;;;;;6.22;3.10;;;32.40;85.50;;;;;;5071644;28;20052;-75
2022/07/19 07:33:12;;;;;;;10.27;3.53;;;32.50;85.00;;;;;;5073111;28;20619;-76
2022/07/19 07:35:39;;;;;;;9.00;3.95;;;32.40;85.10;;;;;;5090401;28;20055;-74
2022/07/19 07:38:07;;;;;;;8.38;3.17;;;32.50;84.90;;;;;;5091870;28;20048;-75
2022/07/19 07:40:35;;;;;;;6.57;3.35;;;32.50;84.50;;;;;;5091095;28;20139;-75
2022/07/19 07:43:06;;;;;;;5.15;3.30;;;32.60;84.60;;;;;;5073567;28;20052;-75
2022/07/19 07:45:34;;;;;;;8.07;4.20;;;32.70;83.80;;;;;;5073261;28;20056;-75
2022/07/19 07:48:01;;;;;;;6.05;3.78;;;32.60;84.00;;;;;;5089855;28;20035;-75
2022/07/19 07:50:29;;;;;;;8.63;3.83;;;32.70;84.00;;;;;;5091520;28;20048;-74
2022/07/19 07:52:57;;;;;;;9.45;3.70;;;32.70;83.40;;;;;;5072385;28;20044;-75
2022/07/19 07:55:24;;;;;;;6.43;3.35;;;32.70;83.20;;;;;;5089402;28;20044;-75
2022/07/19 07:57:54;;;;;;;6.93;3.53;;;32.80;83.00;;;;;;5090589;28;20493;-75
2022/07/19 08:00:22;;;;;;;4.63;3.35;;;32.80;83.00;;;;;;5091236;28;20074;-75
2022/07/19 08:02:50;;;;;;;5.00;3.55;;;32.90;82.60;;;;;;5091879;28;20036;-75
2022/07/19 08:05:22;;;;;;;5.45;3.20;;;33.00;82.10;;;;;;5088893;28;20464;-77
2022/07/19 08:07:50;;;;;;;6.70;3.67;;;33.30;81.90;;;;;;5089893;28;20047;-76
2022/07/19 08:10:23;;;;;;;5.38;2.90;;;33.50;81.70;;;;;;5072503;28;20149;-76
2022/07/19 08:12:55;;;;;;;7.55;4.10;;;33.70;80.90;;;;;;5089651;28;20040;-75
2022/07/19 08:15:22;;;;;;;6.55;3.17;;;33.80;80.20;;;;;;5090598;28;20075;-76
2022/07/19 08:17:50;;;;;;;4.80;2.92;;;33.90;79.40;;;;;;5090423;28;20036;-76
2022/07/19 08:20:17;;;;;;;5.03;3.10;;;34.00;79.50;;;;;;5090669;28;20394;-75
2022/07/19 08:22:45;;;;;;;8.88;3.40;;;33.60;79.80;;;;;;5089147;28;20048;-75
2022/07/19 08:25:16;;;;;;;6.47;3.20;;;33.70;79.60;;;;;;5089794;28;20718;-75
2022/07/19 08:27:44;;;;;;;5.85;3.08;;;33.70;79.50;;;;;;5090323;28;20036;-76
2022/07/19 08:30:13;;;;;;;6.70;4.03;;;33.80;79.00;;;;;;5091078;28;20462;-76
2022/07/19 08:32:41;;;;;;;6.53;3.85;;;33.80;78.70;;;;;;5089732;28;20753;-75
2022/07/19 08:35:10;;;;;;;11.75;3.63;;;33.80;78.20;;;;;;5090283;28;20040;-75
2022/07/19 08:37:39;;;;;;;4.78;3.00;;;33.80;78.70;;;;;;5089531;28;20101;-77
2022/07/19 08:40:08;;;;;;;7.55;3.92;;;33.90;78.60;;;;;;5088333;28;20283;-75
2022/07/19 08:42:36;;;;;;;6.05;3.55;;;33.90;78.30;;;;;;5089515;28;20056;-77
2022/07/19 08:45:09;;;;;;;8.40;3.20;;;33.90;78.20;;;;;;5089059;28;20048;-75
2022/07/19 08:47:38;;;;;;;10.20;3.75;;;33.80;78.40;;;;;;5088111;28;20105;-74
2022/07/19 08:50:08;;;;;;;5.35;3.30;;;33.90;78.70;;;;;;5089755;28;20040;-76
2022/07/19 08:52:37;;;;;;;7.38;3.35;;;34.10;78.40;;;;;;5088862;28;20086;-75
2022/07/19 08:55:05;;;;;;;6.10;3.80;;;34.20;78.10;;;;;;5089785;28;20040;-76
2022/07/19 09:00:19;;;;;;;4.90;3.28;;;34.20;78.00;;;;;;5090154;28;20040;-75
2022/07/19 09:02:56;;;;;;;5.57;3.40;;;34.10;78.20;;;;;;5072011;28;20517;-76
2022/07/19 09:05:25;;;;;;;7.68;3.70;;;33.90;78.50;;;;;;5088601;28;20071;-76
2022/07/19 09:08:11;;;;;;;5.32;3.42;;;34.00;78.30;;;;;;5090034;28;20043;-76
2022/07/19 09:10:44;;;;;;;5.05;3.60;;;34.00;78.00;;;;;;5069010;28;20468;-76
2022/07/19 09:13:15;;;;;;;7.88;3.90;;;34.10;78.40;;;;;;5097460;28;20047;-75
2022/07/19 09:15:49;;;;;;;5.13;3.00;;;34.10;78.20;;;;;;5089977;28;20028;-76
2022/07/19 09:18:32;;;;;;;5.13;3.35;;;34.30;77.90;;;;;;5101267;28;20040;-76
2022/07/19 09:21:06;;;;;;;6.45;3.92;;;34.50;77.30;;;;;;5095889;28;20066;-76
2022/07/19 09:23:34;;;;;;;10.40;3.95;;;34.50;76.80;;;;;;5088856;28;20040;-76
2022/07/19 09:26:05;;;;;;;7.20;3.60;;;34.60;76.50;;;;;;5092474;28;20099;-76
2022/07/19 09:28:35;;;;;;;4.55;3.67;;;34.60;76.30;;;;;;5108404;28;20036;-76
2022/07/19 09:31:04;;;;;;;5.57;3.88;;;34.60;76.40;;;;;;5070245;28;20509;-76
2022/07/19 09:33:33;;;;;;;5.57;3.42;;;34.40;76.90;;;;;;5087373;28;20052;-76
2022/07/19 09:36:10;;;;;;;7.88;4.10;;;34.10;77.00;;;;;;5088533;28;20040;-74
2022/07/19 09:38:42;;;;;;;4.57;3.72;;;33.70;76.80;;;;;;5089009;28;21018;-76
2022/07/19 09:41:19;;;;;;;6.20;3.63;;;33.50;77.50;;;;;;5069710;28;20075;-75
2022/07/19 09:43:53;;;;;;;8.68;4.20;;;33.20;77.90;;;;;;5087170;28;20134;-75
2022/07/19 09:46:31;;;;;;;6.72;4.05;;;32.80;78.10;;;;;;5088060;28;20048;-75
2022/07/19 09:49:14;;;;;;;5.22;3.45;;;32.50;78.60;;;;;;5070932;28;20089;-76
2022/07/19 09:51:50;;;;;;;6.97;4.18;;;32.30;78.40;;;;;;5096298;28;20036;-76
2022/07/19 09:54:21;;;;;;;8.65;4.47;;;32.20;78.70;;;;;;5088207;28;20048;-75
2022/07/19 09:56:50;;;;;;;5.90;3.80;;;32.30;78.90;;;;;;5098177;28;20405;-75
2022/07/19 09:59:19;;;;;;;6.65;4.13;;;32.60;78.50;;;;;;5074158;28;20040;-75
2022/07/19 10:01:48;;;;;;;6.65;3.38;;;32.70;76.90;;;;;;5102673;28;20040;-75
2022/07/19 10:04:22;;;;;;;9.55;4.28;;;32.60;76.60;;;;;;5054731;28;20129;-75
2022/07/19 10:06:51;;;;;;;7.78;3.63;;;32.80;77.10;;;;;;5070525;28;20086;-75
2022/07/19 10:09:21;;;;;;;5.07;3.63;;;33.20;76.70;;;;;;5088950;28;20036;-76
2022/07/19 10:11:53;;;;;;;5.93;4.00;;;33.30;75.00;;;;;;5054684;28;20435;-75
2022/07/19 10:14:20;;;;;;;6.35;3.60;;;33.40;74.50;;;;;;5054659;28;20052;-75
2022/07/19 10:16:54;;;;;;;10.02;4.60;;;33.40;74.00;;;;;;5071255;28;20465;-75
2022/07/19 10:19:47;;;;;;;5.40;4.18;;;33.40;70.80;;;;;;5088831;28;20565;-76
2022/07/19 10:22:19;;;;;;;9.63;4.70;;;33.30;70.30;;;;;;5077060;28;20588;-77
2022/07/19 10:24:58;;;;;;;10.20;4.55;;;33.40;70.30;;;;;;5070773;28;20050;-75
2022/07/19 10:27:26;;;;;;;9.32;4.28;;;33.30;69.70;;;;;;5070471;28;20156;-75
2022/07/19 10:29:57;;;;;;;6.53;4.20;;;33.10;69.80;;;;;;5070921;28;20048;-75
2022/07/19 10:32:29;;;;;;;4.95;3.75;;;32.90;70.20;;;;;;5071728;28;20047;-75
2022/07/19 10:35:25;;;;;;;6.88;4.35;;;32.80;70.50;;;;;;5072662;28;20489;-76
2022/07/19 10:38:13;;;;;;;6.85;4.55;;;32.70;71.00;;;;;;5056289;28;20074;-76
2022/07/19 10:40:44;;;;;;;6.65;4.32;;;32.80;70.60;;;;;;5071038;28;20060;-77
2022/07/19 10:43:13;;;;;;;6.93;4.28;;;32.70;70.40;;;;;;5071890;28;20048;-77
2022/07/19 10:46:03;;;;;;;4.93;3.65;;;32.60;70.50;;;;;;5070887;28;20138;-78
2022/07/19 10:48:50;;;;;;;7.40;4.28;;;32.80;70.20;;;;;;5075392;28;20040;-76
2022/07/19 10:51:39;;;;;;;5.10;4.05;;;32.80;70.00;;;;;;5070900;28;20040;-75
2022/07/19 10:54:07;;;;;;;14.95;4.90;;;32.90;69.90;;;;;;5071780;28;20086;-75
2022/07/19 10:56:40;;;;;;;5.00;4.05;;;32.60;70.20;;;;;;5090324;28;20071;-75
2022/07/19 10:59:28;;;;;;;6.47;4.38;;;32.60;70.40;;;;;;5089123;28;20127;-75
2022/07/19 11:01:59;;;;;;;8.50;5.10;;;32.60;70.40;;;;;;5055087;28;20397;-75
2022/07/19 11:04:36;;;;;;;10.00;5.35;;;32.60;70.70;;;;;;5074405;28;20410;-75
2022/07/19 11:07:13;;;;;;;5.10;4.15;;;32.80;70.80;;;;;;5059263;28;20079;-75
2022/07/19 11:09:47;;;;;;;6.80;3.78;;;33.10;70.50;;;;;;5092153;28;20237;-75
2022/07/19 11:12:21;;;;;;;8.60;4.20;;;33.20;70.60;;;;;;5076404;28;20051;-75
2022/07/19 11:14:49;;;;;;;7.07;3.72;;;33.00;70.40;;;;;;5093118;28;20058;-75
2022/07/19 11:17:37;;;;;;;5.50;3.38;;;32.80;70.00;;;;;;5092404;28;20132;-75
2022/07/19 11:20:12;;;;;;;6.78;4.25;;;32.90;69.90;;;;;;5092697;28;20125;-75
2022/07/19 11:22:43;;;;;;;6.22;4.38;;;32.80;68.90;;;;;;5075439;28;20136;-75
2022/07/19 11:25:12;;;;;;;4.07;3.35;;;32.90;68.80;;;;;;5075510;28;20048;-76
2022/07/19 11:27:45;;;;;;;6.65;3.97;;;32.90;68.60;;;;;;5092732;28;20102;-76
2022/07/19 11:30:14;;;;;;;4.68;3.67;;;32.80;68.60;;;;;;5093755;28;20075;-76
2022/07/19 11:32:43;;;;;;;9.07;3.90;;;32.80;69.00;;;;;;5059165;28;20048;-73
2022/07/19 11:35:14;;;;;;;7.85;4.10;;;32.70;68.70;;;;;;5092377;28;20138;-74
2022/07/19 11:37:45;;;;;;;10.93;4.22;;;32.60;69.00;;;;;;5093723;28;20048;-73
2022/07/19 11:40:13;;;;;;;5.60;4.22;;;32.50;68.80;;;;;;5091448;28;20462;-74
2022/07/19 11:42:47;;;;;;;5.63;4.32;;;32.50;69.00;;;;;;5075422;28;20098;-76
2022/07/19 11:45:49;;;;;;;5.85;4.80;;;32.40;69.40;;;;;;5077986;28;20040;-74
2022/07/19 11:48:25;;;;;;;8.30;4.30;;;32.40;70.40;;;;;;5093503;28;20054;-76
2022/07/19 11:51:09;;;;;;;6.65;3.60;;;32.50;70.90;;;;;;5075431;28;20097;-75
2022/07/19 11:53:39;;;;;;;5.75;4.22;;;32.50;70.60;;;;;;5074869;28;20097;-76
2022/07/19 11:56:21;;;;;;;5.38;3.83;;;32.60;70.90;;;;;;5091922;28;20056;-76
2022/07/19 11:58:51;;;;;;;6.00;3.78;;;32.90;70.70;;;;;;5092092;28;20444;-75
2022/07/19 12:01:25;;;;;;;7.32;4.03;;;32.90;69.20;;;;;;5058607;28;20059;-76
2022/07/19 12:04:00;;;;;;;6.47;3.58;;;32.90;69.40;;;;;;5057566;28;20056;-75
2022/07/19 12:06:39;;;;;;;6.97;4.87;;;33.20;71.80;;;;;;5075069;28;20052;-74
2022/07/19 12:09:10;;;;;;;9.20;3.60;;;33.20;73.20;;;;;;5075579;28;20062;-75
2022/07/19 12:11:46;;;;;;;9.45;4.03;;;33.30;72.90;;;;;;5074801;28;20048;-75
2022/07/19 12:14:27;;;;;;;8.57;3.80;;;33.40;73.40;;;;;;5075182;28;20545;-75
2022/07/19 12:17:18;;;;;;;4.90;3.97;;;33.50;72.60;;;;;;5057303;28;20105;-75
2022/07/19 12:19:47;;;;;;;6.45;3.83;;;33.60;73.50;;;;;;5075068;28;20063;-75
2022/07/19 12:22:36;;;;;;;8.40;4.70;;;33.70;74.30;;;;;;5074892;28;20063;-75
2022/07/19 12:25:07;;;;;;;7.43;4.40;;;33.80;73.80;;;;;;5074853;28;20052;-75
2022/07/19 12:27:36;;;;;;;5.30;3.67;;;33.90;73.70;;;;;;5058139;28;20047;-75
2022/07/19 12:30:05;;;;;;;6.28;4.05;;;33.90;72.90;;;;;;5074841;28;20127;-75
2022/07/19 12:32:38;;;;;;;5.35;4.22;;;33.90;72.80;;;;;;5057971;28;20044;-75
2022/07/19 12:35:15;;;;;;;5.45;3.50;;;34.00;72.30;;;;;;5091248;28;20067;-75
2022/07/19 12:37:46;;;;;;;6.10;4.03;;;33.90;71.80;;;;;;5057667;28;20506;-75
2022/07/19 12:40:22;;;;;;;4.80;3.47;;;33.80;72.10;;;;;;5074152;28;20055;-75
2022/07/19 12:43:02;;;;;;;6.30;3.90;;;33.70;72.50;;;;;;5058407;28;20055;-75
2022/07/19 12:45:53;;;;;;;5.50;3.88;;;33.70;72.30;;;;;;5074646;28;20060;-75
2022/07/19 12:48:21;;;;;;;5.03;4.05;;;33.70;72.40;;;;;;5091275;28;20051;-75
2022/07/19 12:50:50;;;;;;;6.53;3.80;;;33.80;71.80;;;;;;5074078;28;20075;-75
2022/07/19 12:53:20;;;;;;;6.95;3.70;;;33.80;71.80;;;;;;5057739;28;20052;-75
2022/07/19 12:55:49;;;;;;;4.53;3.10;;;33.80;71.00;;;;;;5073905;28;20052;-75
2022/07/19 13:01:08;;;;;;;7.43;3.80;;;33.70;71.10;;;;;;5073434;28;20040;-75
2022/07/19 13:03:36;;;;;;;7.30;3.60;;;33.80;70.80;;;;;;5073329;28;20048;-74
2022/07/19 13:06:05;;;;;;;7.15;4.00;;;33.80;70.80;;;;;;5089948;28;20160;-75